Tama, IA

2:13 PM CST on January 25, 2015 (GMT -0600)
MesoWest TAMA1 IA US UPR | Change Station
CLOSE
Current Station
Personal Weather Station
Location: Tama, IA
Elevation: 829 ft
Nearby Weather Stations

Elev 829 ft 41.97 °N, 92.63 °W | Updated 2 hours ago

Overcast
Overcast
29.0 °F
Feels Like 29.0 °F
N
-
Wind Variable Wind from North

Today
High -- | Low -- °F
--% Chance of Precip.
Yesterday
High -- | Low -- °F
Precip. -- in
7:29 AM 5:16 PM
Waxing Crescent, 35% visible
Pressure 29.91 in
Visibility 10.0 miles
Clouds Mostly Cloudy 1400 ft
Mostly Cloudy 1900 ft
Overcast 4200 ft
Dew Point Not available.
Humidity Not available.
Rainfall -999.00 in
Snow Depth Not available.
UV 1 out of 12
Pollen .10 out of 12
Air Quality Not available.
Flu Activity Not available.
METAR KGGI 251955Z AUTO 03014G18KT 10SM BKN014 BKN019 OVC042 M01/M03 A2991 RMK AO2 T10101032

More Conditions Fewer Conditions

Pressure 29.91 in
Visibility 10.0 miles
Clouds Mostly Cloudy 1400 ft
Mostly Cloudy 1900 ft
Overcast 4200 ft
Dew Point Not available.
Humidity Not available.
Rainfall -999.00 in
Snow Depth Not available.
UV 1 out of 12
Pollen .10 out of 12
Air Quality Not available.
Flu Activity Not available.
METAR KGGI 251955Z AUTO 03014G18KT 10SM BKN014 BKN019 OVC042 M01/M03 A2991 RMK AO2 T10101032

More Conditions Fewer Conditions

10-Day Weather Forecast

Almanac

Astronomy

Jan. 25, 2015 Rise Set
Actual Time
Civil Twilight
Nautical Twilight
Astronomical Twilight
Moon
Length of Visible Light
Length of Day
Tomorrow will be .
, % of the Moon is Illuminated

Today's Extremes

State Highs State Lows

Community

WunderPhotos

Upload Photos

1,790,035 photos uploaded!

WunderBlogs® & News

Nearby

Air Quality

  Air Quality AQ Index Pollutant
Not available.

Snow Depth

Station Depth Elevation

Earthquake Activity

City Distance Mag. Time & Date
Minimum magnitude displayed is 2.5.

Coastal Water Temperatures

Place Temperature

Nearby Weather Stations